To NAV CANADA Home Page Login to a new session Search on AWWS site Feedback and Comments Disclaimer Vers la page française équivalente Tips FAQ What's new on the site To the Forecasts and Observations / NOTAM section To "File a Flight Plan" website Publications and other links Update of the User's profile FIC Telephone Numbers My Weather Data Folder Route Weather Data Regional Weather Data Local Weather Data To the Forecasts and Observations / NOTAM section
Request Generated 04/21/2015 at 02:55:50 UTC . Weather information available at that time is displayed.

METAR/TAF

MEDICINE HAT/AB    (show WxCam)

METAR CYXH 210200Z 35003KT 30SM SCT180 14/M02 A2979 RMK AC3 SLP103
DENSITY ALT 2900FT=
METAR CYXH 210100Z 34010KT 30SM FEW180 17/M02 A2980 RMK AC1 SLP105
DENSITY ALT 3200FT=
METAR CYXH 210000Z 33010G17KT 30SM FEW090 SCT180 18/M03 A2980 RMK
CU2AC1 SLP105 DENSITY ALT 3400FT=

TAF CYXH 202338Z 2100/2112 33012KT P6SM SCT090
BECMG 2101/2103 33008KT
FM210600 VRB03KT P6SM SKC
RMK NXT FCST BY 210600Z=
Your time UTC time
Weather data provided by Environment Canada and NAV CANADA